sensor_id;sensor_type;location;lat;lon;timestamp;pressure;altitude;pressure_sealevel;temperature;humidity
49947;BME280;35839;48.662;13.300;2023-03-13T05:38:52;96924.59;;;1.94;100.00
49947;BME280;35839;48.662;13.300;2023-03-13T05:41:18;96922.97;;;1.80;100.00
49947;BME280;35839;48.662;13.300;2023-03-13T05:43:43;96931.81;;;1.88;100.00
49947;BME280;35839;48.662;13.300;2023-03-13T05:46:08;96934.94;;;1.81;100.00
49947;BME280;35839;48.662;13.300;2023-03-13T05:48:33;96927.44;;;2.02;100.00
49947;BME280;35839;48.662;13.300;2023-03-13T05:50:59;96930.09;;;2.13;100.00
49947;BME280;35839;48.662;13.300;2023-03-13T05:53:25;96930.50;;;2.20;100.00
49947;BME280;35839;48.662;13.300;2023-03-13T05:55:50;96920.31;;;2.05;100.00
49947;BME280;35839;48.662;13.300;2023-03-13T05:58:16;96920.50;;;2.02;100.00
49947;BME280;35839;48.662;13.300;2023-03-13T06:00:41;96916.00;;;1.43;100.00
49947;BME280;35839;48.662;13.300;2023-03-13T06:03:08;96923.88;;;1.92;100.00
49947;BME280;35839;48.662;13.300;2023-03-13T06:05:33;96929.94;;;2.03;100.00
49947;BME280;35839;48.662;13.300;2023-03-13T06:07:58;96927.72;;;1.60;100.00
49947;BME280;35839;48.662;13.300;2023-03-13T06:10:23;96915.34;;;1.65;100.00
49947;BME280;35839;48.662;13.300;2023-03-13T06:12:55;96903.69;;;1.73;100.00
49947;BME280;35839;48.662;13.300;2023-03-13T06:15:21;96893.63;;;1.81;100.00
49947;BME280;35839;48.662;13.300;2023-03-13T06:17:46;96895.63;;;2.01;100.00
49947;BME280;35839;48.662;13.300;2023-03-13T06:20:12;96899.41;;;2.32;100.00
49947;BME280;35839;48.662;13.300;2023-03-13T06:22:38;96906.09;;;2.24;100.00
49947;BME280;35839;48.662;13.300;2023-03-13T06:25:03;96906.22;;;2.58;100.00
49947;BME280;35839;48.662;13.300;2023-03-13T06:27:29;96898.59;;;2.32;100.00
49947;BME280;35839;48.662;13.300;2023-03-13T06:29:54;96892.16;;;2.38;100.00
49947;BME280;35839;48.662;13.300;2023-03-13T06:32:19;96883.59;;;2.37;100.00
49947;BME280;35839;48.662;13.300;2023-03-13T06:34:45;96876.50;;;2.52;100.00
49947;BME280;35839;48.662;13.300;2023-03-13T06:37:10;96877.81;;;2.69;100.00
49947;BME280;35839;48.662;13.300;2023-03-13T06:39:35;96870.59;;;2.97;100.00
49947;BME280;35839;48.662;13.300;2023-03-13T06:42:01;96879.06;;;2.52;100.00
49947;BME280;35839;48.662;13.300;2023-03-13T06:44:26;96892.66;;;2.19;100.00
49947;BME280;35839;48.662;13.300;2023-03-13T06:46:51;96893.66;;;2.29;100.00
49947;BME280;35839;48.662;13.300;2023-03-13T06:49:17;96897.03;;;2.53;100.00
49947;BME280;35839;48.662;13.300;2023-03-13T06:51:42;96899.66;;;2.65;100.00
49947;BME280;35839;48.662;13.300;2023-03-13T06:54:07;96890.03;;;2.67;100.00
49947;BME280;35839;48.662;13.300;2023-03-13T06:56:32;96882.59;;;3.09;100.00
49947;BME280;35839;48.662;13.300;2023-03-13T06:58:58;96880.25;;;3.28;100.00
49947;BME280;35839;48.662;13.300;2023-03-13T07:01:23;96878.13;;;3.67;100.00
49947;BME280;35839;48.662;13.300;2023-03-13T07:03:49;96863.03;;;3.84;100.00
49947;BME280;35839;48.662;13.300;2023-03-13T07:06:14;96837.50;;;3.90;100.00
49947;BME280;35839;48.662;13.300;2023-03-13T07:08:40;96837.38;;;3.92;100.00
49947;BME280;35839;48.662;13.300;2023-03-13T07:11:10;96842.50;;;4.03;100.00
49947;BME280;35839;48.662;13.300;2023-03-13T07:13:36;96833.19;;;4.12;100.00
49947;BME280;35839;48.662;13.300;2023-03-13T07:16:04;96834.72;;;4.35;100.00
49947;BME280;35839;48.662;13.300;2023-03-13T07:18:30;96819.25;;;4.45;100.00
49947;BME280;35839;48.662;13.300;2023-03-13T07:20:58;96838.09;;;4.68;100.00
49947;BME280;35839;48.662;13.300;2023-03-13T07:23:25;96837.09;;;4.80;100.00
49947;BME280;35839;48.662;13.300;2023-03-13T07:25:59;96818.66;;;5.04;100.00
49947;BME280;35839;48.662;13.300;2023-03-13T07:28:26;96829.59;;;4.87;100.00
49947;BME280;35839;48.662;13.300;2023-03-13T07:30:52;96814.59;;;5.12;100.00
49947;BME280;35839;48.662;13.300;2023-03-13T07:33:18;96804.63;;;5.17;100.00
49947;BME280;35839;48.662;13.300;2023-03-13T07:35:48;96818.69;;;5.14;100.00
49947;BME280;35839;48.662;13.300;2023-03-13T07:38:13;96829.66;;;5.18;100.00
49947;BME280;35839;48.662;13.300;2023-03-13T07:40:39;96835.00;;;5.26;100.00
49947;BME280;35839;48.662;13.300;2023-03-13T07:43:04;96842.00;;;5.35;100.00
49947;BME280;35839;48.662;13.300;2023-03-13T07:45:29;96826.75;;;5.52;100.00
49947;BME280;35839;48.662;13.300;2023-03-13T07:47:54;96813.41;;;5.66;100.00
49947;BME280;35839;48.662;13.300;2023-03-13T07:50:20;96825.03;;;5.62;100.00
49947;BME280;35839;48.662;13.300;2023-03-13T07:52:45;96819.88;;;5.81;100.00
49947;BME280;35839;48.662;13.300;2023-03-13T07:55:10;96802.22;;;5.75;100.00
49947;BME280;35839;48.662;13.300;2023-03-13T07:57:35;96785.09;;;5.63;100.00
49947;BME280;35839;48.662;13.300;2023-03-13T08:00:01;96787.03;;;5.70;100.00
49947;BME280;35839;48.662;13.300;2023-03-13T08:02:26;96802.38;;;5.93;100.00
49947;BME280;35839;48.662;13.300;2023-03-13T08:04:52;96805.69;;;6.05;100.00
49947;BME280;35839;48.662;13.300;2023-03-13T08:07:17;96802.28;;;6.14;100.00
49947;BME280;35839;48.662;13.300;2023-03-13T08:09:43;96811.88;;;6.04;100.00
49947;BME280;35839;48.662;13.300;2023-03-13T08:12:08;96806.66;;;6.14;100.00
49947;BME280;35839;48.662;13.300;2023-03-13T08:14:33;96817.16;;;5.93;100.00
49947;BME280;35839;48.662;13.300;2023-03-13T08:16:59;96803.91;;;5.96;100.00
49947;BME280;35839;48.662;13.300;2023-03-13T08:19:24;96794.81;;;5.80;100.00
49947;BME280;35839;48.662;13.300;2023-03-13T08:21:49;96788.31;;;5.96;100.00
49947;BME280;35839;48.662;13.300;2023-03-13T08:24:14;96795.50;;;5.82;100.00
49947;BME280;35839;48.662;13.300;2023-03-13T08:26:40;96795.16;;;5.97;100.00
49947;BME280;35839;48.662;13.300;2023-03-13T08:29:11;96798.91;;;5.73;100.00
49947;BME280;35839;48.662;13.300;2023-03-13T08:31:45;96799.72;;;5.64;100.00
49947;BME280;35839;48.662;13.300;2023-03-13T08:34:12;96800.50;;;5.55;100.00
49947;BME280;35839;48.662;13.300;2023-03-13T08:36:38;96788.78;;;5.51;100.00
49947;BME280;35839;48.662;13.300;2023-03-13T08:39:08;96776.63;;;5.61;100.00
49947;BME280;35839;48.662;13.300;2023-03-13T08:41:35;96776.31;;;5.54;100.00
49947;BME280;35839;48.662;13.300;2023-03-13T08:44:01;96783.06;;;5.66;100.00
49947;BME280;35839;48.662;13.300;2023-03-13T08:46:32;96773.59;;;5.56;100.00
49947;BME280;35839;48.662;13.300;2023-03-13T08:48:58;96779.63;;;5.76;100.00
49947;BME280;35839;48.662;13.300;2023-03-13T08:51:25;96784.59;;;5.79;100.00
49947;BME280;35839;48.662;13.300;2023-03-13T08:53:51;96792.72;;;5.95;100.00
49947;BME280;35839;48.662;13.300;2023-03-13T08:56:19;96786.91;;;5.91;100.00
49947;BME280;35839;48.662;13.300;2023-03-13T08:58:53;96775.81;;;5.89;100.00
49947;BME280;35839;48.662;13.300;2023-03-13T09:01:20;96785.28;;;5.90;100.00
49947;BME280;35839;48.662;13.300;2023-03-13T09:03:46;96785.88;;;6.04;100.00
49947;BME280;35839;48.662;13.300;2023-03-13T09:06:12;96784.19;;;5.93;100.00
49947;BME280;35839;48.662;13.300;2023-03-13T09:08:39;96786.09;;;5.91;100.00
49947;BME280;35839;48.662;13.300;2023-03-13T09:11:09;96787.47;;;5.85;100.00
49947;BME280;35839;48.662;13.300;2023-03-13T09:13:37;96782.19;;;6.06;100.00
49947;BME280;35839;48.662;13.300;2023-03-13T09:16:09;96766.72;;;6.15;100.00
49947;BME280;35839;48.662;13.300;2023-03-13T09:18:34;96769.59;;;6.11;100.00
49947;BME280;35839;48.662;13.300;2023-03-13T09:21:00;96768.78;;;6.11;100.00
49947;BME280;35839;48.662;13.300;2023-03-13T09:23:26;96769.16;;;6.26;100.00
49947;BME280;35839;48.662;13.300;2023-03-13T09:25:53;96772.16;;;6.31;100.00
49947;BME280;35839;48.662;13.300;2023-03-13T09:28:19;96769.94;;;6.65;100.00
49947;BME280;35839;48.662;13.300;2023-03-13T09:30:45;96762.81;;;6.67;100.00
49947;BME280;35839;48.662;13.300;2023-03-13T09:33:10;96769.38;;;6.62;100.00
49947;BME280;35839;48.662;13.300;2023-03-13T09:35:38;96768.44;;;6.63;100.00
49947;BME280;35839;48.662;13.300;2023-03-13T09:38:04;96769.13;;;6.65;100.00
49947;BME280;35839;48.662;13.300;2023-03-13T09:40:36;96761.75;;;6.50;100.00
49947;BME280;35839;48.662;13.300;2023-03-13T09:43:03;96759.28;;;6.49;100.00
49947;BME280;35839;48.662;13.300;2023-03-13T09:45:31;96759.13;;;6.60;100.00
49947;BME280;35839;48.662;13.300;2023-03-13T09:48:03;96756.28;;;6.44;100.00
49947;BME280;35839;48.662;13.300;2023-03-13T09:50:39;96767.88;;;6.59;100.00
49947;BME280;35839;48.662;13.300;2023-03-13T09:53:14;96755.69;;;6.69;100.00
49947;BME280;35839;48.662;13.300;2023-03-13T09:55:43;96751.88;;;6.54;100.00
49947;BME280;35839;48.662;13.300;2023-03-13T09:58:16;96752.63;;;6.84;100.00
49947;BME280;35839;48.662;13.300;2023-03-13T10:00:51;96747.72;;;6.81;100.00
49947;BME280;35839;48.662;13.300;2023-03-13T10:03:22;96755.06;;;6.85;100.00
49947;BME280;35839;48.662;13.300;2023-03-13T10:05:53;96752.72;;;6.92;100.00
49947;BME280;35839;48.662;13.300;2023-03-13T10:08:21;96744.56;;;7.14;100.00
49947;BME280;35839;48.662;13.300;2023-03-13T10:11:17;96758.75;;;7.30;100.00
49947;BME280;35839;48.662;13.300;2023-03-13T10:19:14;96746.13;;;7.35;100.00
49947;BME280;35839;48.662;13.300;2023-03-13T10:21:41;96749.09;;;7.40;100.00
49947;BME280;35839;48.662;13.300;2023-03-13T10:24:17;96746.06;;;7.45;100.00
49947;BME280;35839;48.662;13.300;2023-03-13T10:26:43;96742.63;;;7.44;100.00
49947;BME280;35839;48.662;13.300;2023-03-13T10:31:38;96746.28;;;7.51;100.00
49947;BME280;35839;48.662;13.300;2023-03-13T10:34:08;96736.38;;;7.55;100.00
49947;BME280;35839;48.662;13.300;2023-03-13T10:36:45;96730.44;;;7.80;100.00
49947;BME280;35839;48.662;13.300;2023-03-13T10:39:17;96725.25;;;7.98;100.00
49947;BME280;35839;48.662;13.300;2023-03-13T10:41:43;96719.31;;;7.88;100.00
49947;BME280;35839;48.662;13.300;2023-03-13T10:44:16;96718.91;;;7.83;100.00
49947;BME280;35839;48.662;13.300;2023-03-13T10:46:45;96711.69;;;7.77;100.00
49947;BME280;35839;48.662;13.300;2023-03-13T10:49:19;96703.94;;;7.85;100.00
49947;BME280;35839;48.662;13.300;2023-03-13T10:51:48;96709.28;;;8.01;100.00
49947;BME280;35839;48.662;13.300;2023-03-13T10:54:18;96711.38;;;8.16;100.00
49947;BME280;35839;48.662;13.300;2023-03-13T10:56:46;96711.75;;;8.21;100.00
49947;BME280;35839;48.662;13.300;2023-03-13T10:59:25;96701.91;;;8.15;100.00
49947;BME280;35839;48.662;13.300;2023-03-13T11:01:53;96690.78;;;8.31;100.00
49947;BME280;35839;48.662;13.300;2023-03-13T11:04:33;96694.41;;;8.38;100.00
49947;BME280;35839;48.662;13.300;2023-03-13T11:07:03;96691.28;;;8.34;100.00
49947;BME280;35839;48.662;13.300;2023-03-13T11:09:28;96685.59;;;8.57;100.00
49947;BME280;35839;48.662;13.300;2023-03-13T11:12:00;96677.50;;;8.68;100.00
49947;BME280;35839;48.662;13.300;2023-03-13T11:14:26;96686.41;;;8.83;100.00
49947;BME280;35839;48.662;13.300;2023-03-13T11:17:01;96682.13;;;8.74;100.00
49947;BME280;35839;48.662;13.300;2023-03-13T11:19:52;96665.66;;;8.82;100.00
49947;BME280;35839;48.662;13.300;2023-03-13T11:25:15;96656.69;;;8.84;100.00
49947;BME280;35839;48.662;13.300;2023-03-13T11:27:57;96652.34;;;8.93;100.00
49947;BME280;35839;48.662;13.300;2023-03-13T11:33:37;96663.06;;;9.33;100.00
49947;BME280;35839;48.662;13.300;2023-03-13T11:36:20;96659.13;;;9.28;100.00
49947;BME280;35839;48.662;13.300;2023-03-13T11:39:16;96663.06;;;9.33;100.00
49947;BME280;35839;48.662;13.300;2023-03-13T11:41:59;96660.44;;;9.41;100.00
49947;BME280;35839;48.662;13.300;2023-03-13T11:44:49;96658.81;;;9.32;100.00
49947;BME280;35839;48.662;13.300;2023-03-13T11:47:25;96657.81;;;9.24;100.00
49947;BME280;35839;48.662;13.300;2023-03-13T11:50:22;96660.13;;;9.36;100.00
49947;BME280;35839;48.662;13.300;2023-03-13T12:01:15;96632.00;;;9.29;100.00
49947;BME280;35839;48.662;13.300;2023-03-13T12:04:11;96624.50;;;9.26;100.00
49947;BME280;35839;48.662;13.300;2023-03-13T12:06:43;96616.38;;;9.38;100.00
49947;BME280;35839;48.662;13.300;2023-03-13T12:09:14;96618.28;;;9.27;100.00
49947;BME280;35839;48.662;13.300;2023-03-13T12:11:56;96616.00;;;9.24;100.00
49947;BME280;35839;48.662;13.300;2023-03-13T12:14:41;96609.81;;;9.34;100.00
49947;BME280;35839;48.662;13.300;2023-03-13T12:17:36;96610.16;;;9.31;100.00
49947;BME280;35839;48.662;13.300;2023-03-13T12:20:05;96605.72;;;9.15;100.00
49947;BME280;35839;48.662;13.300;2023-03-13T12:25:37;96599.97;;;9.11;100.00
49947;BME280;35839;48.662;13.300;2023-03-13T12:31:16;96581.25;;;9.65;100.00
49947;BME280;35839;48.662;13.300;2023-03-13T12:33:55;96573.88;;;10.01;100.00
49947;BME280;35839;48.662;13.300;2023-03-13T12:39:04;96553.91;;;10.95;100.00
49947;BME280;35839;48.662;13.300;2023-03-13T12:41:42;96545.31;;;11.56;100.00
49947;BME280;35839;48.662;13.300;2023-03-13T12:44:12;96532.41;;;11.69;100.00
49947;BME280;35839;48.662;13.300;2023-03-13T13:00:27;96514.63;;;12.69;100.00
49947;BME280;35839;48.662;13.300;2023-03-13T13:08:42;96509.34;;;13.05;100.00
49947;BME280;35839;48.662;13.300;2023-03-13T13:14:15;96505.44;;;13.37;100.00
49947;BME280;35839;48.662;13.300;2023-03-13T13:19:48;96504.38;;;13.81;100.00
49947;BME280;35839;48.662;13.300;2023-03-13T13:25:46;96505.44;;;14.15;100.00
49947;BME280;35839;48.662;13.300;2023-03-13T13:27:49;96499.19;;;14.64;100.00
49947;BME280;35839;48.662;13.300;2023-03-13T13:32:52;96498.56;;;15.44;100.00
49947;BME280;35839;48.662;13.300;2023-03-13T13:35:28;96492.25;;;15.45;100.00
49947;BME280;35839;48.662;13.300;2023-03-13T13:43:33;96469.13;;;15.67;100.00
49947;BME280;35839;48.662;13.300;2023-03-13T13:46:21;96467.72;;;15.71;100.00
49947;BME280;35839;48.662;13.300;2023-03-13T13:51:34;96451.88;;;15.44;100.00
49947;BME280;35839;48.662;13.300;2023-03-13T13:54:02;96453.06;;;15.95;100.00
49947;BME280;35839;48.662;13.300;2023-03-13T14:01:27;96445.94;;;16.60;100.00
49947;BME280;35839;48.662;13.300;2023-03-13T14:04:13;96437.13;;;16.28;100.00
49947;BME280;35839;48.662;13.300;2023-03-13T14:06:41;96430.28;;;16.14;100.00
49947;BME280;35839;48.662;13.300;2023-03-13T14:09:34;96421.94;;;16.62;100.00
49947;BME280;35839;48.662;13.300;2023-03-13T14:15:06;96420.75;;;17.21;95.46
49947;BME280;35839;48.662;13.300;2023-03-13T14:17:38;96418.75;;;17.17;93.62
49947;BME280;35839;48.662;13.300;2023-03-13T14:20:04;96408.09;;;17.55;90.87
49947;BME280;35839;48.662;13.300;2023-03-13T14:22:44;96409.78;;;17.68;88.65
49947;BME280;35839;48.662;13.300;2023-03-13T14:25:10;96411.50;;;18.18;83.94
49947;BME280;35839;48.662;13.300;2023-03-13T14:27:42;96407.84;;;18.37;83.95
49947;BME280;35839;48.662;13.300;2023-03-13T14:30:08;96399.75;;;17.95;85.01
49947;BME280;35839;48.662;13.300;2023-03-13T14:32:34;96394.88;;;18.10;82.52
49947;BME280;35839;48.662;13.300;2023-03-13T14:34:59;96381.50;;;18.05;80.26
49947;BME280;35839;48.662;13.300;2023-03-13T14:37:36;96378.25;;;17.85;75.90
49947;BME280;35839;48.662;13.300;2023-03-13T14:40:31;96367.00;;;18.08;72.30
49947;BME280;35839;48.662;13.300;2023-03-13T14:42:59;96355.66;;;18.49;74.08
49947;BME280;35839;48.662;13.300;2023-03-13T14:45:27;96362.06;;;19.02;71.79
49947;BME280;35839;48.662;13.300;2023-03-13T14:48:04;96353.78;;;19.46;69.11
49947;BME280;35839;48.662;13.300;2023-03-13T14:50:29;96343.28;;;19.27;66.98
49947;BME280;35839;48.662;13.300;2023-03-13T14:53:01;96340.63;;;19.15;68.21
49947;BME280;35839;48.662;13.300;2023-03-13T14:55:31;96329.66;;;19.12;69.55
49947;BME280;35839;48.662;13.300;2023-03-13T14:58:03;96333.59;;;19.21;66.49
49947;BME280;35839;48.662;13.300;2023-03-13T15:00:34;96327.13;;;19.52;63.53
49947;BME280;35839;48.662;13.300;2023-03-13T15:03:32;96322.94;;;18.44;64.94
49947;BME280;35839;48.662;13.300;2023-03-13T15:06:23;96323.09;;;18.61;69.72
49947;BME280;35839;48.662;13.300;2023-03-13T15:09:06;96307.53;;;18.64;68.21
49947;BME280;35839;48.662;13.300;2023-03-13T15:11:32;96302.66;;;19.15;67.45
49947;BME280;35839;48.662;13.300;2023-03-13T15:13:59;96288.56;;;19.73;65.65
49947;BME280;35839;48.662;13.300;2023-03-13T15:16:25;96284.56;;;19.88;66.40
49947;BME280;35839;48.662;13.300;2023-03-13T15:18:53;96281.56;;;20.25;61.64
49947;BME280;35839;48.662;13.300;2023-03-13T15:21:21;96265.84;;;21.02;60.13
49947;BME280;35839;48.662;13.300;2023-03-13T15:23:50;96257.25;;;22.00;55.91
49947;BME280;35839;48.662;13.300;2023-03-13T15:26:16;96241.03;;;22.56;54.28
49947;BME280;35839;48.662;13.300;2023-03-13T15:28:42;96246.84;;;22.48;52.40
49947;BME280;35839;48.662;13.300;2023-03-13T15:31:09;96254.53;;;21.68;54.97
49947;BME280;35839;48.662;13.300;2023-03-13T15:33:36;96241.09;;;20.51;55.84
49947;BME280;35839;48.662;13.300;2023-03-13T15:36:01;96252.47;;;19.02;62.18
49947;BME280;35839;48.662;13.300;2023-03-13T15:38:27;96249.41;;;18.39;65.82
49947;BME280;35839;48.662;13.300;2023-03-13T15:40:52;96258.59;;;18.06;66.80
49947;BME280;35839;48.662;13.300;2023-03-13T15:43:19;96257.63;;;17.89;71.29
49947;BME280;35839;48.662;13.300;2023-03-13T15:45:45;96238.44;;;17.57;71.50
49947;BME280;35839;48.662;13.300;2023-03-13T15:48:17;96234.53;;;17.78;70.83
49947;BME280;35839;48.662;13.300;2023-03-13T15:50:44;96231.28;;;17.94;69.55
49947;BME280;35839;48.662;13.300;2023-03-13T15:53:22;96223.59;;;17.74;70.23
49947;BME280;35839;48.662;13.300;2023-03-13T15:55:48;96204.66;;;18.19;69.14
49947;BME280;35839;48.662;13.300;2023-03-13T15:58:15;96195.84;;;19.08;65.37
49947;BME280;35839;48.662;13.300;2023-03-13T16:00:42;96189.88;;;18.89;65.49
49947;BME280;35839;48.662;13.300;2023-03-13T16:03:33;96184.59;;;18.11;68.07
49947;BME280;35839;48.662;13.300;2023-03-13T16:05:59;96177.47;;;17.33;70.97
49947;BME280;35839;48.662;13.300;2023-03-13T16:08:26;96171.28;;;16.84;74.91
49947;BME280;35839;48.662;13.300;2023-03-13T16:10:52;96173.44;;;15.93;80.46
49947;BME280;35839;48.662;13.300;2023-03-13T16:13:18;96165.81;;;16.35;77.29
49947;BME280;35839;48.662;13.300;2023-03-13T16:15:44;96157.66;;;16.12;78.58
49947;BME280;35839;48.662;13.300;2023-03-13T16:18:17;96147.84;;;15.94;80.51
49947;BME280;35839;48.662;13.300;2023-03-13T16:20:44;96144.44;;;15.48;83.23
49947;BME280;35839;48.662;13.300;2023-03-13T16:23:10;96149.00;;;15.28;83.60
49947;BME280;35839;48.662;13.300;2023-03-13T16:25:35;96146.16;;;14.44;88.49
49947;BME280;35839;48.662;13.300;2023-03-13T16:28:01;96139.09;;;14.18;92.26
49947;BME280;35839;48.662;13.300;2023-03-13T16:30:30;96138.28;;;13.98;93.05
49947;BME280;35839;48.662;13.300;2023-03-13T16:32:56;96149.38;;;13.73;96.40
49947;BME280;35839;48.662;13.300;2023-03-13T16:35:22;96135.66;;;14.11;91.87
49947;BME280;35839;48.662;13.300;2023-03-13T16:37:50;96131.94;;;13.59;94.29
49947;BME280;35839;48.662;13.300;2023-03-13T16:40:18;96126.50;;;13.67;93.72
49947;BME280;35839;48.662;13.300;2023-03-13T16:42:44;96131.78;;;13.80;92.61
49947;BME280;35839;48.662;13.300;2023-03-13T16:45:10;96121.19;;;13.40;95.36
49947;BME280;35839;48.662;13.300;2023-03-13T16:47:35;96113.91;;;13.36;93.94
49947;BME280;35839;48.662;13.300;2023-03-13T16:50:02;96114.41;;;13.18;95.67
49947;BME280;35839;48.662;13.300;2023-03-13T16:52:27;96113.97;;;13.07;96.79
49947;BME280;35839;48.662;13.300;2023-03-13T16:54:53;96108.28;;;12.97;96.55
49947;BME280;35839;48.662;13.300;2023-03-13T16:57:22;96102.63;;;13.00;100.00
49947;BME280;35839;48.662;13.300;2023-03-13T16:59:48;96106.38;;;12.78;100.00
49947;BME280;35839;48.662;13.300;2023-03-13T17:02:15;96095.09;;;12.42;100.00
49947;BME280;35839;48.662;13.300;2023-03-13T17:04:41;96086.91;;;11.96;100.00
49947;BME280;35839;48.662;13.300;2023-03-13T17:07:24;96095.25;;;12.06;100.00
49947;BME280;35839;48.662;13.300;2023-03-13T17:09:51;96088.28;;;11.92;100.00
49947;BME280;35839;48.662;13.300;2023-03-13T17:12:16;96090.84;;;11.64;100.00
49947;BME280;35839;48.662;13.300;2023-03-13T17:14:43;96079.09;;;11.38;100.00
49947;BME280;35839;48.662;13.300;2023-03-13T17:17:14;96096.19;;;11.34;100.00
49947;BME280;35839;48.662;13.300;2023-03-13T17:19:40;96084.84;;;11.27;100.00
49947;BME280;35839;48.662;13.300;2023-03-13T17:22:06;96072.16;;;11.30;100.00
49947;BME280;35839;48.662;13.300;2023-03-13T17:24:31;96061.38;;;11.40;100.00
49947;BME280;35839;48.662;13.300;2023-03-13T17:26:56;96065.44;;;11.64;100.00
49947;BME280;35839;48.662;13.300;2023-03-13T17:29:22;96062.88;;;11.49;100.00
49947;BME280;35839;48.662;13.300;2023-03-13T17:31:48;96062.69;;;11.08;100.00
49947;BME280;35839;48.662;13.300;2023-03-13T17:34:13;96047.09;;;10.85;100.00
49947;BME280;35839;48.662;13.300;2023-03-13T17:36:41;96047.59;;;11.10;100.00
49947;BME280;35839;48.662;13.300;2023-03-13T17:39:09;96049.31;;;11.03;100.00
49947;BME280;35839;48.662;13.300;2023-03-13T17:41:35;96038.44;;;10.84;100.00
49947;BME280;35839;48.662;13.300;2023-03-13T17:44:01;96036.97;;;10.96;100.00
49947;BME280;35839;48.662;13.300;2023-03-13T17:46:39;96033.06;;;11.07;100.00
49947;BME280;35839;48.662;13.300;2023-03-13T17:49:06;96038.31;;;10.92;100.00
49947;BME280;35839;48.662;13.300;2023-03-13T17:51:35;96028.47;;;10.94;100.00
49947;BME280;35839;48.662;13.300;2023-03-13T17:54:00;96024.34;;;10.85;100.00
49947;BME280;35839;48.662;13.300;2023-03-13T17:56:29;96024.69;;;10.61;100.00
49947;BME280;35839;48.662;13.300;2023-03-13T17:58:57;96021.19;;;10.39;100.00
49947;BME280;35839;48.662;13.300;2023-03-13T18:01:25;96011.25;;;10.49;100.00
49947;BME280;35839;48.662;13.300;2023-03-13T18:03:51;96009.25;;;10.51;100.00
49947;BME280;35839;48.662;13.300;2023-03-13T18:06:27;96014.25;;;10.31;100.00
49947;BME280;35839;48.662;13.300;2023-03-13T18:08:56;96001.06;;;10.39;100.00
49947;BME280;35839;48.662;13.300;2023-03-13T18:11:23;96001.47;;;10.58;100.00
49947;BME280;35839;48.662;13.300;2023-03-13T18:13:49;96002.66;;;10.55;100.00
49947;BME280;35839;48.662;13.300;2023-03-13T18:18:46;95997.88;;;9.99;100.00
49947;BME280;35839;48.662;13.300;2023-03-13T18:21:11;95988.41;;;10.13;100.00
49947;BME280;35839;48.662;13.300;2023-03-13T18:23:37;95984.13;;;10.35;100.00
49947;BME280;35839;48.662;13.300;2023-03-13T18:26:17;95980.13;;;10.24;100.00
49947;BME280;35839;48.662;13.300;2023-03-13T18:28:43;95972.66;;;10.36;100.00
49947;BME280;35839;48.662;13.300;2023-03-13T18:31:09;95977.16;;;10.42;100.00
49947;BME280;35839;48.662;13.300;2023-03-13T18:33:35;95974.38;;;10.29;100.00
49947;BME280;35839;48.662;13.300;2023-03-13T18:36:00;95971.53;;;10.45;100.00
49947;BME280;35839;48.662;13.300;2023-03-13T18:38:25;95963.34;;;10.33;100.00
49947;BME280;35839;48.662;13.300;2023-03-13T18:40:51;95967.97;;;9.87;100.00
49947;BME280;35839;48.662;13.300;2023-03-13T18:43:16;95964.72;;;9.85;100.00
49947;BME280;35839;48.662;13.300;2023-03-13T18:45:41;95963.53;;;9.73;100.00
49947;BME280;35839;48.662;13.300;2023-03-13T18:48:10;95956.03;;;9.69;100.00
49947;BME280;35839;48.662;13.300;2023-03-13T18:50:35;95951.19;;;9.66;100.00
49947;BME280;35839;48.662;13.300;2023-03-13T18:53:01;95948.34;;;9.38;100.00
49947;BME280;35839;48.662;13.300;2023-03-13T18:55:29;95941.03;;;9.34;100.00
49947;BME280;35839;48.662;13.300;2023-03-13T18:57:55;95935.47;;;9.37;100.00
49947;BME280;35839;48.662;13.300;2023-03-13T19:00:23;95938.00;;;9.30;100.00
49947;BME280;35839;48.662;13.300;2023-03-13T19:02:49;95927.44;;;9.23;100.00
49947;BME280;35839;48.662;13.300;2023-03-13T19:05:16;95923.44;;;9.13;100.00
49947;BME280;35839;48.662;13.300;2023-03-13T19:07:41;95917.06;;;9.15;100.00
49947;BME280;35839;48.662;13.300;2023-03-13T19:10:22;95910.56;;;9.11;100.00
49947;BME280;35839;48.662;13.300;2023-03-13T19:12:51;95904.00;;;8.77;100.00
49947;BME280;35839;48.662;13.300;2023-03-13T19:15:17;95889.47;;;8.98;100.00
49947;BME280;35839;48.662;13.300;2023-03-13T19:17:43;95887.94;;;9.03;100.00
49947;BME280;35839;48.662;13.300;2023-03-13T19:20:19;95876.00;;;9.24;100.00
49947;BME280;35839;48.662;13.300;2023-03-13T19:22:46;95874.63;;;9.13;100.00
49947;BME280;35839;48.662;13.300;2023-03-13T19:25:12;95857.72;;;9.09;100.00
49947;BME280;35839;48.662;13.300;2023-03-13T19:27:40;95860.75;;;8.98;100.00
49947;BME280;35839;48.662;13.300;2023-03-13T19:30:20;95850.00;;;8.93;100.00
49947;BME280;35839;48.662;13.300;2023-03-13T19:32:46;95845.56;;;8.78;100.00
49947;BME280;35839;48.662;13.300;2023-03-13T19:35:11;95853.19;;;8.65;100.00
49947;BME280;35839;48.662;13.300;2023-03-13T19:37:38;95844.09;;;8.61;100.00
49947;BME280;35839;48.662;13.300;2023-03-13T19:40:06;95842.53;;;8.52;100.00
49947;BME280;35839;48.662;13.300;2023-03-13T19:42:32;95830.66;;;8.49;100.00
49947;BME280;35839;48.662;13.300;2023-03-13T19:44:59;95827.25;;;8.49;100.00
49947;BME280;35839;48.662;13.300;2023-03-13T19:47:24;95823.63;;;8.50;100.00
49947;BME280;35839;48.662;13.300;2023-03-13T19:49:50;95818.03;;;8.76;100.00
49947;BME280;35839;48.662;13.300;2023-03-13T19:52:16;95816.69;;;8.65;100.00
49947;BME280;35839;48.662;13.300;2023-03-13T19:54:43;95800.53;;;8.38;100.00
49947;BME280;35839;48.662;13.300;2023-03-13T19:57:09;95792.28;;;8.73;100.00